sensor_id;sensor_type;location;lat;lon;timestamp;temperature;humidity
9410;DHT22;4744;52.576;13.568;2022-11-20T00:01:29;0.90;1.00
9410;DHT22;4744;52.576;13.568;2022-11-20T00:03:57;0.90;1.00
9410;DHT22;4744;52.576;13.568;2022-11-20T00:06:25;0.90;1.00
9410;DHT22;4744;52.576;13.568;2022-11-20T00:08:54;0.90;1.00
9410;DHT22;4744;52.576;13.568;2022-11-20T00:11:23;0.90;1.00
9410;DHT22;4744;52.576;13.568;2022-11-20T00:13:52;0.90;1.00
9410;DHT22;4744;52.576;13.568;2022-11-20T00:16:21;0.90;1.00
9410;DHT22;4744;52.576;13.568;2022-11-20T00:18:50;0.90;1.00
9410;DHT22;4744;52.576;13.568;2022-11-20T00:21:18;0.90;1.00
9410;DHT22;4744;52.576;13.568;2022-11-20T00:23:46;0.90;1.00
9410;DHT22;4744;52.576;13.568;2022-11-20T00:26:14;0.90;1.00
9410;DHT22;4744;52.576;13.568;2022-11-20T00:28:42;0.90;1.00
9410;DHT22;4744;52.576;13.568;2022-11-20T00:31:11;0.90;1.00
9410;DHT22;4744;52.576;13.568;2022-11-20T00:33:39;0.90;1.00
9410;DHT22;4744;52.576;13.568;2022-11-20T00:36:10;0.90;1.00
9410;DHT22;4744;52.576;13.568;2022-11-20T00:38:37;0.90;1.00
9410;DHT22;4744;52.576;13.568;2022-11-20T00:41:06;0.90;1.00
9410;DHT22;4744;52.576;13.568;2022-11-20T00:43:33;0.90;1.00
9410;DHT22;4744;52.576;13.568;2022-11-20T00:46:02;0.90;1.00
9410;DHT22;4744;52.576;13.568;2022-11-20T00:48:29;0.90;1.00
9410;DHT22;4744;52.576;13.568;2022-11-20T00:50:56;0.90;1.00
9410;DHT22;4744;52.576;13.568;2022-11-20T00:53:25;0.80;1.00
9410;DHT22;4744;52.576;13.568;2022-11-20T00:55:53;0.90;1.00
9410;DHT22;4744;52.576;13.568;2022-11-20T00:58:21;0.80;1.00
9410;DHT22;4744;52.576;13.568;2022-11-20T01:00:48;0.80;1.00
9410;DHT22;4744;52.576;13.568;2022-11-20T01:03:16;0.80;1.00
9410;DHT22;4744;52.576;13.568;2022-11-20T01:05:43;0.80;1.00
9410;DHT22;4744;52.576;13.568;2022-11-20T01:08:10;0.80;1.00
9410;DHT22;4744;52.576;13.568;2022-11-20T01:10:38;0.80;1.00
9410;DHT22;4744;52.576;13.568;2022-11-20T01:13:05;0.80;1.00
9410;DHT22;4744;52.576;13.568;2022-11-20T01:15:49;0.80;1.00
9410;DHT22;4744;52.576;13.568;2022-11-20T01:18:16;0.80;1.00
9410;DHT22;4744;52.576;13.568;2022-11-20T01:20:43;0.80;1.00
9410;DHT22;4744;52.576;13.568;2022-11-20T01:23:10;0.80;1.00
9410;DHT22;4744;52.576;13.568;2022-11-20T01:25:39;0.80;1.00
9410;DHT22;4744;52.576;13.568;2022-11-20T01:28:05;0.80;1.00
9410;DHT22;4744;52.576;13.568;2022-11-20T01:30:32;0.80;1.00
9410;DHT22;4744;52.576;13.568;2022-11-20T01:32:59;0.80;1.00
9410;DHT22;4744;52.576;13.568;2022-11-20T01:35:26;0.70;1.00
9410;DHT22;4744;52.576;13.568;2022-11-20T01:37:53;0.80;1.00
9410;DHT22;4744;52.576;13.568;2022-11-20T01:40:20;0.80;1.00
9410;DHT22;4744;52.576;13.568;2022-11-20T01:42:53;0.80;1.00
9410;DHT22;4744;52.576;13.568;2022-11-20T01:46:01;0.70;1.00
9410;DHT22;4744;52.576;13.568;2022-11-20T01:48:34;0.80;1.00
9410;DHT22;4744;52.576;13.568;2022-11-20T01:51:02;0.70;1.00
9410;DHT22;4744;52.576;13.568;2022-11-20T01:53:33;0.80;1.00
9410;DHT22;4744;52.576;13.568;2022-11-20T01:56:03;0.80;1.00
9410;DHT22;4744;52.576;13.568;2022-11-20T01:58:35;0.80;1.00
9410;DHT22;4744;52.576;13.568;2022-11-20T02:01:05;0.80;1.00
9410;DHT22;4744;52.576;13.568;2022-11-20T02:03:33;0.80;1.00
9410;DHT22;4744;52.576;13.568;2022-11-20T02:06:05;0.70;1.00
9410;DHT22;4744;52.576;13.568;2022-11-20T02:08:35;0.70;1.00
9410;DHT22;4744;52.576;13.568;2022-11-20T02:11:03;0.80;1.00
9410;DHT22;4744;52.576;13.568;2022-11-20T02:13:30;0.80;1.00
9410;DHT22;4744;52.576;13.568;2022-11-20T02:16:16;0.80;1.00
9410;DHT22;4744;52.576;13.568;2022-11-20T02:18:44;0.70;1.00
9410;DHT22;4744;52.576;13.568;2022-11-20T02:21:27;0.70;1.00
9410;DHT22;4744;52.576;13.568;2022-11-20T02:24:03;0.70;1.00
9410;DHT22;4744;52.576;13.568;2022-11-20T02:26:33;0.70;1.00
9410;DHT22;4744;52.576;13.568;2022-11-20T02:29:02;0.70;1.00
9410;DHT22;4744;52.576;13.568;2022-11-20T02:31:29;0.70;1.00
9410;DHT22;4744;52.576;13.568;2022-11-20T02:33:56;0.70;1.00
9410;DHT22;4744;52.576;13.568;2022-11-20T02:36:25;0.70;1.00
9410;DHT22;4744;52.576;13.568;2022-11-20T02:38:53;0.70;1.00
9410;DHT22;4744;52.576;13.568;2022-11-20T02:41:22;0.70;1.00
9410;DHT22;4744;52.576;13.568;2022-11-20T02:43:56;0.70;1.00
9410;DHT22;4744;52.576;13.568;2022-11-20T02:46:23;0.70;1.00
9410;DHT22;4744;52.576;13.568;2022-11-20T02:48:50;0.70;1.00
9410;DHT22;4744;52.576;13.568;2022-11-20T02:51:17;0.70;1.00
9410;DHT22;4744;52.576;13.568;2022-11-20T02:53:44;0.70;1.00
9410;DHT22;4744;52.576;13.568;2022-11-20T02:56:11;0.70;1.00
9410;DHT22;4744;52.576;13.568;2022-11-20T02:58:40;0.70;1.00
9410;DHT22;4744;52.576;13.568;2022-11-20T03:01:07;0.70;1.00
9410;DHT22;4744;52.576;13.568;2022-11-20T03:03:34;0.70;1.00
9410;DHT22;4744;52.576;13.568;2022-11-20T03:06:01;0.70;1.00
9410;DHT22;4744;52.576;13.568;2022-11-20T03:08:28;0.60;1.00
9410;DHT22;4744;52.576;13.568;2022-11-20T03:10:55;0.60;1.00
9410;DHT22;4744;52.576;13.568;2022-11-20T03:13:22;0.60;1.00
9410;DHT22;4744;52.576;13.568;2022-11-20T03:15:50;0.60;1.00
9410;DHT22;4744;52.576;13.568;2022-11-20T03:18:17;0.60;1.00
9410;DHT22;4744;52.576;13.568;2022-11-20T03:20:44;0.60;1.00
9410;DHT22;4744;52.576;13.568;2022-11-20T03:23:11;0.60;1.00
9410;DHT22;4744;52.576;13.568;2022-11-20T03:25:38;0.60;1.00
9410;DHT22;4744;52.576;13.568;2022-11-20T03:28:05;0.60;1.00
9410;DHT22;4744;52.576;13.568;2022-11-20T03:30:32;0.60;1.00
9410;DHT22;4744;52.576;13.568;2022-11-20T03:33:00;0.60;1.00
9410;DHT22;4744;52.576;13.568;2022-11-20T03:35:27;0.70;1.00
9410;DHT22;4744;52.576;13.568;2022-11-20T03:37:54;0.70;1.00
9410;DHT22;4744;52.576;13.568;2022-11-20T03:40:21;0.60;1.00
9410;DHT22;4744;52.576;13.568;2022-11-20T03:42:48;0.60;1.00
9410;DHT22;4744;52.576;13.568;2022-11-20T03:45:16;0.70;1.00
9410;DHT22;4744;52.576;13.568;2022-11-20T03:47:44;0.70;1.00
9410;DHT22;4744;52.576;13.568;2022-11-20T03:50:13;0.60;1.00
9410;DHT22;4744;52.576;13.568;2022-11-20T03:52:41;0.70;1.00
9410;DHT22;4744;52.576;13.568;2022-11-20T03:55:08;0.70;1.00
9410;DHT22;4744;52.576;13.568;2022-11-20T03:57:35;0.60;1.00
9410;DHT22;4744;52.576;13.568;2022-11-20T04:00:03;0.70;1.00
9410;DHT22;4744;52.576;13.568;2022-11-20T04:02:30;0.60;1.00
9410;DHT22;4744;52.576;13.568;2022-11-20T04:04:57;0.60;1.00
9410;DHT22;4744;52.576;13.568;2022-11-20T04:07:26;0.70;1.00
9410;DHT22;4744;52.576;13.568;2022-11-20T04:09:53;0.60;1.00
9410;DHT22;4744;52.576;13.568;2022-11-20T04:12:20;0.60;1.00
9410;DHT22;4744;52.576;13.568;2022-11-20T04:14:47;0.60;1.00
9410;DHT22;4744;52.576;13.568;2022-11-20T04:17:14;0.60;1.00
9410;DHT22;4744;52.576;13.568;2022-11-20T04:19:40;0.60;1.00
9410;DHT22;4744;52.576;13.568;2022-11-20T04:22:07;0.60;1.00
9410;DHT22;4744;52.576;13.568;2022-11-20T04:24:38;0.70;1.00
9410;DHT22;4744;52.576;13.568;2022-11-20T04:27:05;0.70;1.00
9410;DHT22;4744;52.576;13.568;2022-11-20T04:29:32;0.70;1.00
9410;DHT22;4744;52.576;13.568;2022-11-20T04:31:59;0.70;1.00
9410;DHT22;4744;52.576;13.568;2022-11-20T04:34:25;0.60;1.00
9410;DHT22;4744;52.576;13.568;2022-11-20T04:36:52;0.70;1.00
9410;DHT22;4744;52.576;13.568;2022-11-20T04:39:19;0.60;1.00
9410;DHT22;4744;52.576;13.568;2022-11-20T04:41:47;0.60;1.00
9410;DHT22;4744;52.576;13.568;2022-11-20T04:44:34;0.60;1.00
9410;DHT22;4744;52.576;13.568;2022-11-20T04:47:01;0.60;1.00
9410;DHT22;4744;52.576;13.568;2022-11-20T04:49:28;0.60;1.00
9410;DHT22;4744;52.576;13.568;2022-11-20T04:51:57;0.60;1.00
9410;DHT22;4744;52.576;13.568;2022-11-20T04:54:24;0.50;1.00
9410;DHT22;4744;52.576;13.568;2022-11-20T04:56:52;0.50;1.00
9410;DHT22;4744;52.576;13.568;2022-11-20T04:59:19;0.50;1.00
9410;DHT22;4744;52.576;13.568;2022-11-20T05:01:46;0.50;1.00
9410;DHT22;4744;52.576;13.568;2022-11-20T05:04:13;0.50;1.00
9410;DHT22;4744;52.576;13.568;2022-11-20T05:06:40;0.50;1.00
9410;DHT22;4744;52.576;13.568;2022-11-20T05:09:06;0.50;1.00
9410;DHT22;4744;52.576;13.568;2022-11-20T05:11:33;0.50;1.00
9410;DHT22;4744;52.576;13.568;2022-11-20T05:14:02;0.50;1.00
9410;DHT22;4744;52.576;13.568;2022-11-20T05:16:29;0.50;1.00
9410;DHT22;4744;52.576;13.568;2022-11-20T05:18:56;0.50;1.00
9410;DHT22;4744;52.576;13.568;2022-11-20T05:21:23;0.50;1.00
9410;DHT22;4744;52.576;13.568;2022-11-20T05:23:50;0.50;1.00
9410;DHT22;4744;52.576;13.568;2022-11-20T05:26:18;0.50;1.00
9410;DHT22;4744;52.576;13.568;2022-11-20T05:28:46;0.40;1.00
9410;DHT22;4744;52.576;13.568;2022-11-20T05:31:17;0.50;1.00
9410;DHT22;4744;52.576;13.568;2022-11-20T05:33:44;0.50;1.00
9410;DHT22;4744;52.576;13.568;2022-11-20T05:36:13;0.40;1.00
9410;DHT22;4744;52.576;13.568;2022-11-20T05:38:40;0.40;1.00
9410;DHT22;4744;52.576;13.568;2022-11-20T05:41:10;0.40;1.00
9410;DHT22;4744;52.576;13.568;2022-11-20T05:43:39;0.40;1.00
9410;DHT22;4744;52.576;13.568;2022-11-20T05:46:07;0.40;1.00
9410;DHT22;4744;52.576;13.568;2022-11-20T05:48:36;0.40;1.00
9410;DHT22;4744;52.576;13.568;2022-11-20T05:51:05;0.40;1.00
9410;DHT22;4744;52.576;13.568;2022-11-20T05:53:33;0.40;1.00
9410;DHT22;4744;52.576;13.568;2022-11-20T05:56:00;0.40;1.00
9410;DHT22;4744;52.576;13.568;2022-11-20T05:58:28;0.40;1.00
9410;DHT22;4744;52.576;13.568;2022-11-20T06:01:03;0.30;1.00
9410;DHT22;4744;52.576;13.568;2022-11-20T06:03:30;0.40;1.00
9410;DHT22;4744;52.576;13.568;2022-11-20T06:06:01;0.30;1.00
9410;DHT22;4744;52.576;13.568;2022-11-20T06:08:28;0.40;1.00
9410;DHT22;4744;52.576;13.568;2022-11-20T06:10:55;0.40;1.00
9410;DHT22;4744;52.576;13.568;2022-11-20T06:13:22;0.30;1.00
9410;DHT22;4744;52.576;13.568;2022-11-20T06:15:49;0.30;1.00
9410;DHT22;4744;52.576;13.568;2022-11-20T06:18:17;0.40;1.00
9410;DHT22;4744;52.576;13.568;2022-11-20T06:20:44;0.40;1.00
9410;DHT22;4744;52.576;13.568;2022-11-20T06:23:12;0.40;1.00
9410;DHT22;4744;52.576;13.568;2022-11-20T06:25:40;0.40;1.00
9410;DHT22;4744;52.576;13.568;2022-11-20T06:28:07;0.40;1.00
9410;DHT22;4744;52.576;13.568;2022-11-20T06:30:35;0.40;1.00
9410;DHT22;4744;52.576;13.568;2022-11-20T06:33:02;0.30;1.00
9410;DHT22;4744;52.576;13.568;2022-11-20T06:35:28;0.30;1.00
9410;DHT22;4744;52.576;13.568;2022-11-20T06:37:55;0.30;1.00
9410;DHT22;4744;52.576;13.568;2022-11-20T06:40:24;0.30;1.00
9410;DHT22;4744;52.576;13.568;2022-11-20T06:42:53;0.30;1.00
9410;DHT22;4744;52.576;13.568;2022-11-20T06:45:19;0.30;1.00
9410;DHT22;4744;52.576;13.568;2022-11-20T06:47:46;0.30;1.00
9410;DHT22;4744;52.576;13.568;2022-11-20T06:50:13;0.30;1.00
9410;DHT22;4744;52.576;13.568;2022-11-20T06:52:40;0.30;1.00
9410;DHT22;4744;52.576;13.568;2022-11-20T06:55:08;0.30;1.00
9410;DHT22;4744;52.576;13.568;2022-11-20T06:57:36;0.30;1.00
9410;DHT22;4744;52.576;13.568;2022-11-20T07:00:04;0.30;1.00
9410;DHT22;4744;52.576;13.568;2022-11-20T07:02:31;0.30;1.00
9410;DHT22;4744;52.576;13.568;2022-11-20T07:04:58;0.30;1.00
9410;DHT22;4744;52.576;13.568;2022-11-20T07:07:25;0.30;1.00
9410;DHT22;4744;52.576;13.568;2022-11-20T07:09:54;0.30;1.00
9410;DHT22;4744;52.576;13.568;2022-11-20T07:12:21;0.30;1.00
9410;DHT22;4744;52.576;13.568;2022-11-20T07:14:49;0.30;1.00
9410;DHT22;4744;52.576;13.568;2022-11-20T07:17:16;0.30;1.00
9410;DHT22;4744;52.576;13.568;2022-11-20T07:19:43;0.40;1.00
9410;DHT22;4744;52.576;13.568;2022-11-20T07:22:10;0.30;1.00
9410;DHT22;4744;52.576;13.568;2022-11-20T07:24:38;0.30;1.00
9410;DHT22;4744;52.576;13.568;2022-11-20T07:27:05;0.30;1.00
9410;DHT22;4744;52.576;13.568;2022-11-20T07:29:32;0.30;1.00
9410;DHT22;4744;52.576;13.568;2022-11-20T07:32:01;0.30;1.00
9410;DHT22;4744;52.576;13.568;2022-11-20T07:34:27;0.30;1.00
9410;DHT22;4744;52.576;13.568;2022-11-20T07:36:54;0.30;1.00
9410;DHT22;4744;52.576;13.568;2022-11-20T07:39:21;0.40;1.00
9410;DHT22;4744;52.576;13.568;2022-11-20T07:41:48;0.40;1.00
9410;DHT22;4744;52.576;13.568;2022-11-20T07:44:15;0.40;1.00
9410;DHT22;4744;52.576;13.568;2022-11-20T07:46:42;0.40;1.00
9410;DHT22;4744;52.576;13.568;2022-11-20T07:49:10;0.40;1.00
9410;DHT22;4744;52.576;13.568;2022-11-20T07:51:37;0.40;1.00
9410;DHT22;4744;52.576;13.568;2022-11-20T07:54:04;0.40;1.00
9410;DHT22;4744;52.576;13.568;2022-11-20T07:56:31;0.40;1.00
9410;DHT22;4744;52.576;13.568;2022-11-20T07:58:58;0.40;1.00
9410;DHT22;4744;52.576;13.568;2022-11-20T08:01:25;0.40;1.00
9410;DHT22;4744;52.576;13.568;2022-11-20T08:03:52;0.40;1.00
9410;DHT22;4744;52.576;13.568;2022-11-20T08:06:20;0.50;1.00
9410;DHT22;4744;52.576;13.568;2022-11-20T08:08:47;0.50;1.00
9410;DHT22;4744;52.576;13.568;2022-11-20T08:11:14;0.60;1.00
9410;DHT22;4744;52.576;13.568;2022-11-20T08:13:58;0.60;1.00
9410;DHT22;4744;52.576;13.568;2022-11-20T08:16:42;0.50;1.00
9410;DHT22;4744;52.576;13.568;2022-11-20T08:19:09;0.50;1.00
9410;DHT22;4744;52.576;13.568;2022-11-20T08:21:38;0.60;1.00
9410;DHT22;4744;52.576;13.568;2022-11-20T08:24:06;0.60;1.00
9410;DHT22;4744;52.576;13.568;2022-11-20T08:26:33;0.60;1.00
9410;DHT22;4744;52.576;13.568;2022-11-20T08:29:00;0.60;1.00
9410;DHT22;4744;52.576;13.568;2022-11-20T08:31:27;0.60;1.00
9410;DHT22;4744;52.576;13.568;2022-11-20T08:33:54;0.60;1.00
9410;DHT22;4744;52.576;13.568;2022-11-20T08:36:22;0.60;1.00
9410;DHT22;4744;52.576;13.568;2022-11-20T08:38:52;0.70;1.00
9410;DHT22;4744;52.576;13.568;2022-11-20T08:41:19;0.60;1.00
9410;DHT22;4744;52.576;13.568;2022-11-20T08:43:54;0.60;1.00
9410;DHT22;4744;52.576;13.568;2022-11-20T08:46:23;0.60;1.00
9410;DHT22;4744;52.576;13.568;2022-11-20T08:48:50;0.60;1.00
9410;DHT22;4744;52.576;13.568;2022-11-20T08:51:17;0.60;1.00
9410;DHT22;4744;52.576;13.568;2022-11-20T08:53:45;0.60;1.00
9410;DHT22;4744;52.576;13.568;2022-11-20T08:56:15;0.70;1.00
9410;DHT22;4744;52.576;13.568;2022-11-20T08:58:42;0.70;1.00
9410;DHT22;4744;52.576;13.568;2022-11-20T09:01:09;0.70;1.00
9410;DHT22;4744;52.576;13.568;2022-11-20T09:03:36;0.70;1.00
9410;DHT22;4744;52.576;13.568;2022-11-20T09:06:06;0.80;1.00
9410;DHT22;4744;52.576;13.568;2022-11-20T09:08:33;0.80;1.00
9410;DHT22;4744;52.576;13.568;2022-11-20T09:11:02;0.90;1.00
9410;DHT22;4744;52.576;13.568;2022-11-20T09:13:30;0.90;1.00
9410;DHT22;4744;52.576;13.568;2022-11-20T09:15:59;0.90;1.00
9410;DHT22;4744;52.576;13.568;2022-11-20T09:18:27;1.00;1.00
9410;DHT22;4744;52.576;13.568;2022-11-20T09:20:56;1.00;1.00
9410;DHT22;4744;52.576;13.568;2022-11-20T09:23:24;1.00;1.00
9410;DHT22;4744;52.576;13.568;2022-11-20T09:25:51;1.00;1.00
9410;DHT22;4744;52.576;13.568;2022-11-20T09:28:21;1.10;1.00
9410;DHT22;4744;52.576;13.568;2022-11-20T09:30:49;1.10;1.00
9410;DHT22;4744;52.576;13.568;2022-11-20T09:33:16;1.10;1.00
9410;DHT22;4744;52.576;13.568;2022-11-20T09:35:43;1.10;1.00
9410;DHT22;4744;52.576;13.568;2022-11-20T09:38:10;1.10;1.00
9410;DHT22;4744;52.576;13.568;2022-11-20T09:40:40;1.10;1.00
9410;DHT22;4744;52.576;13.568;2022-11-20T09:43:14;1.20;1.00
9410;DHT22;4744;52.576;13.568;2022-11-20T09:45:56;1.20;1.00
9410;DHT22;4744;52.576;13.568;2022-11-20T09:48:52;1.20;1.00
9410;DHT22;4744;52.576;13.568;2022-11-20T09:51:34;1.30;1.00
9410;DHT22;4744;52.576;13.568;2022-11-20T09:54:15;1.20;1.00
9410;DHT22;4744;52.576;13.568;2022-11-20T09:56:46;1.20;1.00
9410;DHT22;4744;52.576;13.568;2022-11-20T09:59:28;1.20;1.00
9410;DHT22;4744;52.576;13.568;2022-11-20T10:01:59;1.30;1.00
9410;DHT22;4744;52.576;13.568;2022-11-20T10:04:28;1.40;1.00
9410;DHT22;4744;52.576;13.568;2022-11-20T10:07:03;1.30;1.00
9410;DHT22;4744;52.576;13.568;2022-11-20T10:09:34;1.40;1.00
9410;DHT22;4744;52.576;13.568;2022-11-20T10:12:12;1.40;1.00
9410;DHT22;4744;52.576;13.568;2022-11-20T10:15:09;1.40;1.00
9410;DHT22;4744;52.576;13.568;2022-11-20T10:17:58;1.40;1.00
9410;DHT22;4744;52.576;13.568;2022-11-20T10:20:30;1.50;1.00
9410;DHT22;4744;52.576;13.568;2022-11-20T10:26:02;1.50;1.00
9410;DHT22;4744;52.576;13.568;2022-11-20T10:28:37;1.50;1.00
9410;DHT22;4744;52.576;13.568;2022-11-20T10:31:09;1.80;1.00
9410;DHT22;4744;52.576;13.568;2022-11-20T10:33:41;1.90;1.00
9410;DHT22;4744;52.576;13.568;2022-11-20T10:36:15;1.80;1.00
9410;DHT22;4744;52.576;13.568;2022-11-20T10:38:45;1.70;1.00
9410;DHT22;4744;52.576;13.568;2022-11-20T10:41:20;1.70;1.00
9410;DHT22;4744;52.576;13.568;2022-11-20T10:43:57;1.60;1.00
9410;DHT22;4744;52.576;13.568;2022-11-20T10:46:32;1.50;1.00
9410;DHT22;4744;52.576;13.568;2022-11-20T10:49:05;1.40;1.00
9410;DHT22;4744;52.576;13.568;2022-11-20T10:51:42;1.30;1.00
9410;DHT22;4744;52.576;13.568;2022-11-20T10:54:17;1.30;1.00
9410;DHT22;4744;52.576;13.568;2022-11-20T10:56:50;1.30;1.00
9410;DHT22;4744;52.576;13.568;2022-11-20T10:59:50;1.40;1.00
9410;DHT22;4744;52.576;13.568;2022-11-20T11:02:23;1.40;1.00
9410;DHT22;4744;52.576;13.568;2022-11-20T11:04:53;1.40;1.00
9410;DHT22;4744;52.576;13.568;2022-11-20T11:07:22;1.50;1.00
9410;DHT22;4744;52.576;13.568;2022-11-20T11:09:52;1.50;1.00
9410;DHT22;4744;52.576;13.568;2022-11-20T11:12:21;1.60;1.00
9410;DHT22;4744;52.576;13.568;2022-11-20T11:14:50;1.70;1.00
9410;DHT22;4744;52.576;13.568;2022-11-20T11:17:24;1.90;1.00
9410;DHT22;4744;52.576;13.568;2022-11-20T11:20:02;2.00;1.00
9410;DHT22;4744;52.576;13.568;2022-11-20T11:22:31;2.00;1.00
9410;DHT22;4744;52.576;13.568;2022-11-20T11:24:59;1.90;1.00
9410;DHT22;4744;52.576;13.568;2022-11-20T11:27:26;1.90;1.00
9410;DHT22;4744;52.576;13.568;2022-11-20T11:30:12;1.90;1.00
9410;DHT22;4744;52.576;13.568;2022-11-20T11:32:39;1.80;1.00
9410;DHT22;4744;52.576;13.568;2022-11-20T11:35:20;1.70;1.00
9410;DHT22;4744;52.576;13.568;2022-11-20T11:37:48;1.70;1.00
9410;DHT22;4744;52.576;13.568;2022-11-20T11:40:17;1.70;1.00
9410;DHT22;4744;52.576;13.568;2022-11-20T11:42:50;1.70;1.00
9410;DHT22;4744;52.576;13.568;2022-11-20T11:45:19;1.70;1.00
9410;DHT22;4744;52.576;13.568;2022-11-20T11:47:47;1.70;1.00
9410;DHT22;4744;52.576;13.568;2022-11-20T11:50:19;1.70;1.00
9410;DHT22;4744;52.576;13.568;2022-11-20T11:52:53;1.70;1.00
9410;DHT22;4744;52.576;13.568;2022-11-20T11:55:30;1.70;1.00
9410;DHT22;4744;52.576;13.568;2022-11-20T12:00:54;1.80;1.00
9410;DHT22;4744;52.576;13.568;2022-11-20T12:03:28;1.80;1.00
9410;DHT22;4744;52.576;13.568;2022-11-20T12:05:59;1.80;1.00
9410;DHT22;4744;52.576;13.568;2022-11-20T12:08:32;1.70;1.00
9410;DHT22;4744;52.576;13.568;2022-11-20T12:11:06;1.80;1.00
9410;DHT22;4744;52.576;13.568;2022-11-20T12:13:43;1.70;1.00
9410;DHT22;4744;52.576;13.568;2022-11-20T12:16:14;1.70;1.00
9410;DHT22;4744;52.576;13.568;2022-11-20T12:18:42;1.70;1.00
9410;DHT22;4744;52.576;13.568;2022-11-20T12:21:20;1.60;1.00
9410;DHT22;4744;52.576;13.568;2022-11-20T12:26:57;1.60;1.00
9410;DHT22;4744;52.576;13.568;2022-11-20T12:29:37;1.60;1.00
9410;DHT22;4744;52.576;13.568;2022-11-20T12:32:36;1.60;1.00
9410;DHT22;4744;52.576;13.568;2022-11-20T12:35:18;1.60;1.00
9410;DHT22;4744;52.576;13.568;2022-11-20T12:38:06;1.70;1.00
9410;DHT22;4744;52.576;13.568;2022-11-20T12:40:43;1.80;1.00
9410;DHT22;4744;52.576;13.568;2022-11-20T12:43:19;1.90;1.00
9410;DHT22;4744;52.576;13.568;2022-11-20T12:46:17;1.90;1.00
9410;DHT22;4744;52.576;13.568;2022-11-20T12:48:52;1.90;1.00
9410;DHT22;4744;52.576;13.568;2022-11-20T12:51:44;1.90;1.00
9410;DHT22;4744;52.576;13.568;2022-11-20T12:54:46;2.00;1.00
9410;DHT22;4744;52.576;13.568;2022-11-20T12:57:21;2.10;1.00
9410;DHT22;4744;52.576;13.568;2022-11-20T13:00:07;2.20;1.00
9410;DHT22;4744;52.576;13.568;2022-11-20T13:02:45;2.20;1.00
9410;DHT22;4744;52.576;13.568;2022-11-20T13:05:21;2.30;1.00
9410;DHT22;4744;52.576;13.568;2022-11-20T13:07:53;2.30;1.00
9410;DHT22;4744;52.576;13.568;2022-11-20T13:10:29;2.40;1.00
9410;DHT22;4744;52.576;13.568;2022-11-20T13:13:01;2.50;1.00
9410;DHT22;4744;52.576;13.568;2022-11-20T13:15:42;2.50;1.00
9410;DHT22;4744;52.576;13.568;2022-11-20T13:18:11;2.50;1.00
9410;DHT22;4744;52.576;13.568;2022-11-20T13:20:42;2.50;1.00
9410;DHT22;4744;52.576;13.568;2022-11-20T13:23:10;2.40;1.00
9410;DHT22;4744;52.576;13.568;2022-11-20T13:25:39;2.30;1.00
9410;DHT22;4744;52.576;13.568;2022-11-20T13:28:26;2.20;1.00
9410;DHT22;4744;52.576;13.568;2022-11-20T13:30:55;2.20;1.00
9410;DHT22;4744;52.576;13.568;2022-11-20T13:33:25;2.20;1.00
9410;DHT22;4744;52.576;13.568;2022-11-20T13:35:58;2.10;1.00
9410;DHT22;4744;52.576;13.568;2022-11-20T13:38:27;2.20;1.00
9410;DHT22;4744;52.576;13.568;2022-11-20T13:40:57;2.20;1.00
9410;DHT22;4744;52.576;13.568;2022-11-20T13:43:33;2.20;1.00
9410;DHT22;4744;52.576;13.568;2022-11-20T13:46:02;2.10;1.00
9410;DHT22;4744;52.576;13.568;2022-11-20T13:48:32;2.10;1.00
9410;DHT22;4744;52.576;13.568;2022-11-20T13:51:24;2.20;1.00
9410;DHT22;4744;52.576;13.568;2022-11-20T13:54:22;2.20;1.00
9410;DHT22;4744;52.576;13.568;2022-11-20T13:57:02;2.10;1.00
9410;DHT22;4744;52.576;13.568;2022-11-20T13:59:49;2.10;1.00
9410;DHT22;4744;52.576;13.568;2022-11-20T14:02:20;2.10;1.00
9410;DHT22;4744;52.576;13.568;2022-11-20T14:04:50;2.00;1.00
9410;DHT22;4744;52.576;13.568;2022-11-20T14:07:19;2.00;1.00
9410;DHT22;4744;52.576;13.568;2022-11-20T14:09:51;1.90;1.00
9410;DHT22;4744;52.576;13.568;2022-11-20T14:12:28;1.90;1.00
9410;DHT22;4744;52.576;13.568;2022-11-20T14:14:55;1.80;1.00
9410;DHT22;4744;52.576;13.568;2022-11-20T14:17:28;1.70;1.00
9410;DHT22;4744;52.576;13.568;2022-11-20T14:19:58;1.70;1.00
9410;DHT22;4744;52.576;13.568;2022-11-20T14:22:27;1.60;1.00
9410;DHT22;4744;52.576;13.568;2022-11-20T14:25:03;1.60;1.00
9410;DHT22;4744;52.576;13.568;2022-11-20T14:27:34;1.50;1.00
9410;DHT22;4744;52.576;13.568;2022-11-20T14:30:03;1.50;1.00
9410;DHT22;4744;52.576;13.568;2022-11-20T14:32:31;1.50;1.00
9410;DHT22;4744;52.576;13.568;2022-11-20T14:35:03;1.40;1.00
9410;DHT22;4744;52.576;13.568;2022-11-20T14:37:36;1.40;1.00
9410;DHT22;4744;52.576;13.568;2022-11-20T14:40:22;1.40;1.00
9410;DHT22;4744;52.576;13.568;2022-11-20T14:42:51;1.30;1.00
9410;DHT22;4744;52.576;13.568;2022-11-20T14:45:19;1.30;1.00
9410;DHT22;4744;52.576;13.568;2022-11-20T14:47:46;1.20;1.00
9410;DHT22;4744;52.576;13.568;2022-11-20T14:50:19;1.20;1.00
9410;DHT22;4744;52.576;13.568;2022-11-20T14:52:54;1.20;1.00
9410;DHT22;4744;52.576;13.568;2022-11-20T14:55:30;1.20;1.00
9410;DHT22;4744;52.576;13.568;2022-11-20T14:58:00;1.20;1.00
9410;DHT22;4744;52.576;13.568;2022-11-20T15:00:29;1.20;1.00
9410;DHT22;4744;52.576;13.568;2022-11-20T15:02:56;1.20;1.00
9410;DHT22;4744;52.576;13.568;2022-11-20T15:05:25;1.20;1.00
9410;DHT22;4744;52.576;13.568;2022-11-20T15:08:05;1.10;1.00
9410;DHT22;4744;52.576;13.568;2022-11-20T15:10:32;1.10;1.00
9410;DHT22;4744;52.576;13.568;2022-11-20T15:13:03;1.20;1.00
9410;DHT22;4744;52.576;13.568;2022-11-20T15:15:35;1.20;1.00
9410;DHT22;4744;52.576;13.568;2022-11-20T15:18:03;1.10;1.00
9410;DHT22;4744;52.576;13.568;2022-11-20T15:20:31;1.20;1.00
9410;DHT22;4744;52.576;13.568;2022-11-20T15:22:59;1.10;1.00
9410;DHT22;4744;52.576;13.568;2022-11-20T15:25:26;1.10;1.00
9410;DHT22;4744;52.576;13.568;2022-11-20T15:27:55;1.10;1.00
9410;DHT22;4744;52.576;13.568;2022-11-20T15:30:24;1.20;1.00
9410;DHT22;4744;52.576;13.568;2022-11-20T15:32:51;1.10;1.00
9410;DHT22;4744;52.576;13.568;2022-11-20T15:35:18;1.20;1.00
9410;DHT22;4744;52.576;13.568;2022-11-20T15:37:45;1.10;1.00
9410;DHT22;4744;52.576;13.568;2022-11-20T15:40:12;1.10;1.00
9410;DHT22;4744;52.576;13.568;2022-11-20T15:42:39;1.10;1.00
9410;DHT22;4744;52.576;13.568;2022-11-20T15:45:30;1.20;1.00
9410;DHT22;4744;52.576;13.568;2022-11-20T15:47:58;1.20;1.00
9410;DHT22;4744;52.576;13.568;2022-11-20T15:50:29;1.20;1.00
9410;DHT22;4744;52.576;13.568;2022-11-20T15:52:56;1.20;1.00
9410;DHT22;4744;52.576;13.568;2022-11-20T15:55:24;1.20;1.00
9410;DHT22;4744;52.576;13.568;2022-11-20T15:57:51;1.20;1.00
9410;DHT22;4744;52.576;13.568;2022-11-20T16:00:18;1.20;1.00
9410;DHT22;4744;52.576;13.568;2022-11-20T16:02:46;1.20;1.00
9410;DHT22;4744;52.576;13.568;2022-11-20T16:05:15;1.20;1.00
9410;DHT22;4744;52.576;13.568;2022-11-20T16:07:43;1.20;1.00
9410;DHT22;4744;52.576;13.568;2022-11-20T16:10:09;1.20;1.00
9410;DHT22;4744;52.576;13.568;2022-11-20T16:12:36;1.20;1.00
9410;DHT22;4744;52.576;13.568;2022-11-20T16:15:20;1.20;1.00
9410;DHT22;4744;52.576;13.568;2022-11-20T16:18:08;1.20;1.00
9410;DHT22;4744;52.576;13.568;2022-11-20T16:20:37;1.10;1.00
9410;DHT22;4744;52.576;13.568;2022-11-20T16:23:04;1.10;1.00
9410;DHT22;4744;52.576;13.568;2022-11-20T16:25:31;1.00;1.00
9410;DHT22;4744;52.576;13.568;2022-11-20T16:27:58;1.00;1.00
9410;DHT22;4744;52.576;13.568;2022-11-20T16:30:26;0.90;1.00
9410;DHT22;4744;52.576;13.568;2022-11-20T16:32:53;0.80;1.00
9410;DHT22;4744;52.576;13.568;2022-11-20T16:35:21;0.80;1.00
9410;DHT22;4744;52.576;13.568;2022-11-20T16:37:48;0.70;1.00
9410;DHT22;4744;52.576;13.568;2022-11-20T16:40:15;0.70;1.00
9410;DHT22;4744;52.576;13.568;2022-11-20T16:42:42;0.70;1.00
9410;DHT22;4744;52.576;13.568;2022-11-20T16:45:10;0.60;1.00
9410;DHT22;4744;52.576;13.568;2022-11-20T16:47:37;0.70;1.00